Terminal Aerodrome Forecast
Issued by NWS Cleveland, OH

Home | Current Version | Previous Version | Text Only | Print | Product List | Glossary Off
Versions: 1 2 3 4 5 6 7 8 9 10 11 12 13 14 15 16 17 18 19 20 21 22 23 24

000
FTUS41 KCLE 271700 RRA
TAFERI
TAF
KERI 271741Z 2718/2818 26008KT P6SM SCT040
     FM272000 22006KT P6SM SCT030 BKN050
      TEMPO 2721/2801 3SM -TSRA OVC030CB
     FM280100 34006KT 4SM -RA BR SCT008 OVC040
     FM280700 34006KT 3SM -RA BR OVC005
     FM281200 01010KT 5SM BR OVC005
     FM281600 01012KT P6SM OVC015=

USA.gov is the U.S. government's official web portal to all federal, state and local government web resources and services.